createdAt,value
2022-10-12T00:04:05.823Z,97797.58
2022-10-12T00:14:09.283Z,97800.14
2022-10-12T00:24:12.859Z,97797.48
2022-10-12T00:34:16.608Z,97796.12
2022-10-12T00:44:48.112Z,97792.00
2022-10-12T00:54:55.027Z,97787.26
2022-10-12T01:04:59.557Z,97793.48
2022-10-12T01:15:04.638Z,97787.16
2022-10-12T01:25:50.664Z,97791.85
2022-10-12T01:36:22.063Z,97793.89
2022-10-12T01:46:25.426Z,97790.31
2022-10-12T01:56:47.922Z,97794.49
2022-10-12T02:07:09.185Z,97798.84
2022-10-12T02:17:16.127Z,97803.13
2022-10-12T02:27:22.479Z,97803.59
2022-10-12T02:37:43.438Z,97803.02
2022-10-12T02:47:50.429Z,97811.48
2022-10-12T02:57:54.849Z,97810.34
2022-10-12T03:07:58.501Z,97812.79
2022-10-12T03:18:02.064Z,97816.01
2022-10-12T03:28:06.465Z,97810.02
2022-10-12T03:38:10.116Z,97809.45
2022-10-12T03:48:13.884Z,97812.50
2022-10-12T03:58:17.655Z,97811.04
2022-10-12T04:08:21.420Z,97817.86
2022-10-12T04:18:25.288Z,97810.96
2022-10-12T04:28:28.905Z,97813.36
2022-10-12T04:38:32.723Z,97819.91
2022-10-12T04:48:36.276Z,97823.85
2022-10-12T04:58:40.257Z,97834.00
2022-10-12T05:08:44.138Z,97837.56
2022-10-12T05:18:48.307Z,97834.67
2022-10-12T05:28:52.428Z,97833.39
2022-10-12T05:38:56.151Z,97841.81
2022-10-12T05:48:59.829Z,97841.37
2022-10-12T05:59:04.482Z,97832.92
2022-10-12T06:09:08.679Z,97844.27
2022-10-12T06:19:12.547Z,97850.59
2022-10-12T06:29:16.219Z,97854.20
2022-10-12T06:39:20.449Z,97857.34
2022-10-12T06:49:24.049Z,97858.70
2022-10-12T06:59:28.029Z,97855.10
2022-10-12T07:09:32.261Z,97857.05
2022-10-12T07:19:35.931Z,97853.86
2022-10-12T07:29:40.448Z,97852.38
2022-10-12T07:39:44.770Z,97842.91
2022-10-12T07:49:48.503Z,97835.88
2022-10-12T07:59:52.165Z,97826.40
2022-10-12T08:09:56.342Z,97814.39
2022-10-12T08:19:59.896Z,97808.52
2022-10-12T08:30:07.656Z,97806.15
2022-10-12T08:40:18.749Z,97800.85
2022-10-12T08:50:28.682Z,97794.70
2022-10-12T09:00:35.025Z,97788.60
2022-10-12T09:10:46.683Z,97784.91
2022-10-12T09:20:54.195Z,97781.19
2022-10-12T09:31:11.605Z,97779.58
2022-10-12T09:41:37.287Z,97776.59
2022-10-12T09:51:41.663Z,97776.91
2022-10-12T10:02:17.873Z,97772.24
2022-10-12T10:12:24.344Z,97774.11
2022-10-12T10:22:30.432Z,97772.25
2022-10-12T10:32:34.386Z,97769.89
2022-10-12T10:42:37.977Z,97760.24
2022-10-12T10:52:41.827Z,97757.11
2022-10-12T11:02:59.413Z,97753.21
2022-10-12T11:13:12.892Z,97750.54
2022-10-12T11:23:54.009Z,97746.15
2022-10-12T11:34:03.677Z,97740.45
2022-10-12T11:44:16.323Z,97735.15
2022-10-12T11:54:33.371Z,97731.19
2022-10-12T12:04:43.643Z,97730.41
2022-10-12T12:14:54.110Z,97728.46
2022-10-12T12:25:06.570Z,97724.81
2022-10-12T12:35:27.439Z,97715.77
2022-10-12T12:45:33.878Z,97713.16
2022-10-12T12:55:52.056Z,97714.64
2022-10-12T13:06:08.097Z,97710.97
2022-10-12T13:16:57.255Z,97705.66
2022-10-12T13:27:00.771Z,97702.05
2022-10-12T13:37:16.348Z,97699.86
2022-10-12T13:47:25.073Z,97691.90
2022-10-12T13:57:43.692Z,97687.02
2022-10-12T14:07:50.006Z,97683.21
2022-10-12T14:17:55.641Z,97679.75
2022-10-12T14:28:06.045Z,97681.55
2022-10-12T14:38:40.303Z,97677.58
2022-10-12T14:48:44.088Z,97674.34
2022-10-12T14:58:47.935Z,97675.77
2022-10-12T15:08:52.932Z,97678.40
2022-10-12T15:18:56.799Z,97683.88
2022-10-12T15:29:00.476Z,97687.91
2022-10-12T15:39:04.750Z,97694.13
2022-10-12T15:49:10.268Z,97696.82
2022-10-12T15:59:14.665Z,97701.52
2022-10-12T16:09:18.199Z,97705.89
2022-10-12T16:19:22.371Z,97707.14
2022-10-12T16:29:26.449Z,97705.80
2022-10-12T16:39:30.400Z,97706.17
2022-10-12T16:49:34.704Z,97710.32
2022-10-12T16:59:38.371Z,97712.58
2022-10-12T17:09:42.669Z,97715.02
2022-10-12T17:19:46.935Z,97726.48
2022-10-12T17:29:51.109Z,97730.58
2022-10-12T17:39:54.969Z,97727.39
2022-10-12T17:50:00.295Z,97729.33
2022-10-12T18:00:05.849Z,97726.17
2022-10-12T18:10:18.810Z,97725.66
2022-10-12T18:20:23.771Z,97728.06
2022-10-12T18:30:29.330Z,97727.98
2022-10-12T18:40:39.815Z,97717.30
2022-10-12T18:50:47.448Z,97711.95
2022-10-12T19:00:52.297Z,97715.10
2022-10-12T19:10:58.018Z,97713.20
2022-10-12T19:21:07.785Z,97718.06
2022-10-12T19:31:17.690Z,97726.36
2022-10-12T19:41:22.570Z,97728.80
2022-10-12T19:51:29.181Z,97734.58
2022-10-12T20:01:37.834Z,97728.52
2022-10-12T20:11:43.062Z,97728.70
2022-10-12T20:21:50.407Z,97733.72
2022-10-12T20:31:54.285Z,97735.22
2022-10-12T20:42:01.234Z,97736.13
2022-10-12T20:52:05.713Z,97728.26
2022-10-12T21:02:10.309Z,97731.02
2022-10-12T21:12:14.321Z,97735.61
2022-10-12T21:22:18.807Z,97740.06
2022-10-12T21:32:22.830Z,97743.39
2022-10-12T21:42:26.797Z,97735.88
2022-10-12T21:52:31.904Z,97733.14
2022-10-12T22:02:35.467Z,97734.27
2022-10-12T22:12:39.743Z,97730.20
2022-10-12T22:22:43.629Z,97737.19
2022-10-12T22:32:48.317Z,97746.73
2022-10-12T22:42:52.173Z,97738.23
2022-10-12T22:52:56.050Z,97735.45
2022-10-12T23:02:59.738Z,97731.42
2022-10-12T23:13:03.578Z,97732.38
2022-10-12T23:23:08.217Z,97731.73
2022-10-12T23:33:17.871Z,97730.58
2022-10-12T23:43:21.639Z,97727.70
2022-10-12T23:53:26.222Z,97723.48
